Time;durP1;ratioP1;P1;durP2;ratioP2;P2;SDS_P1;SDS_P2;PMS_P1;PMS_P2;Temp;Humidity;BMP_temperature;BMP_pressure;BME280_temperature;BME280_humidity;BME280_pressure;Samples;Min_cycle;Max_cycle;Signal;HPM_P1;HPM_P2
2023/06/12 00:01:30;;;;;;;5.32;3.50;;;22.30;46.50;;;;;;4912607;29;20168;-72
2023/06/12 00:03:58;;;;;;;6.83;3.50;;;22.30;46.60;;;;;;4911498;29;20063;-72
2023/06/12 00:06:28;;;;;;;6.32;3.60;;;22.20;46.80;;;;;;4911933;29;20151;-72
2023/06/12 00:08:55;;;;;;;6.10;3.60;;;22.20;46.80;;;;;;4909785;29;20052;-73
2023/06/12 00:11:22;;;;;;;7.07;3.78;;;22.10;46.90;;;;;;4925411;29;20082;-73
2023/06/12 00:13:49;;;;;;;6.07;3.30;;;22.10;47.00;;;;;;4911280;29;20066;-73
2023/06/12 00:16:16;;;;;;;5.67;3.20;;;22.00;47.10;;;;;;4911546;29;20456;-73
2023/06/12 00:18:43;;;;;;;5.60;3.20;;;22.00;47.10;;;;;;4911441;29;20638;-73
2023/06/12 00:21:14;;;;;;;6.28;3.38;;;21.90;47.30;;;;;;4912483;29;20057;-73
2023/06/12 00:23:41;;;;;;;5.88;3.45;;;21.90;47.30;;;;;;4943256;28;20057;-73
2023/06/12 00:26:09;;;;;;;7.38;3.60;;;21.90;47.50;;;;;;4943360;28;20076;-73
2023/06/12 00:28:38;;;;;;;7.03;3.23;;;21.90;47.50;;;;;;4942935;28;20060;-73
2023/06/12 00:31:05;;;;;;;6.35;3.40;;;21.80;47.60;;;;;;4912534;29;20063;-73
2023/06/12 00:33:33;;;;;;;6.78;3.40;;;21.70;47.70;;;;;;4911344;29;20176;-73
2023/06/12 00:36:00;;;;;;;5.97;3.40;;;21.70;47.90;;;;;;4911086;29;20041;-73
2023/06/12 00:38:28;;;;;;;5.85;2.97;;;21.70;48.10;;;;;;4923874;29;20053;-73
2023/06/12 00:40:55;;;;;;;5.80;3.47;;;21.70;48.20;;;;;;4926981;29;20059;-73
2023/06/12 00:43:22;;;;;;;6.05;3.08;;;21.50;48.30;;;;;;4910948;29;20141;-73
2023/06/12 00:45:50;;;;;;;5.55;3.35;;;21.50;48.40;;;;;;4910681;29;20056;-73
2023/06/12 00:48:18;;;;;;;6.00;2.90;;;21.50;48.50;;;;;;4924954;29;20136;-73
2023/06/12 00:50:45;;;;;;;6.47;3.25;;;21.40;48.50;;;;;;4911011;29;20519;-73
2023/06/12 00:53:12;;;;;;;5.13;2.83;;;21.40;48.70;;;;;;4926537;29;20045;-73
2023/06/12 00:55:41;;;;;;;6.18;3.70;;;21.40;48.90;;;;;;4910658;29;20048;-73
2023/06/12 00:58:08;;;;;;;8.65;3.55;;;21.40;49.00;;;;;;4911107;29;20559;-73
2023/06/12 01:00:38;;;;;;;7.53;3.50;;;21.30;49.00;;;;;;4912348;29;20056;-73
2023/06/12 01:03:07;;;;;;;7.85;3.30;;;21.30;49.10;;;;;;4895283;29;20112;-73
2023/06/12 01:05:37;;;;;;;5.60;3.20;;;21.30;49.10;;;;;;4891501;29;20144;-73
2023/06/12 01:08:26;;;;;;;6.53;3.20;;;21.30;49.10;;;;;;4892845;29;20140;-73
2023/06/12 01:11:03;;;;;;;6.55;3.30;;;21.20;49.20;;;;;;4907687;29;20057;-73
2023/06/12 01:13:31;;;;;;;5.65;2.83;;;21.10;49.20;;;;;;4910293;29;20531;-73
2023/06/12 01:15:59;;;;;;;5.53;3.00;;;21.10;49.30;;;;;;4910237;29;20060;-73
2023/06/12 01:18:26;;;;;;;6.13;3.13;;;21.10;49.40;;;;;;4908638;29;20048;-73
2023/06/12 01:20:58;;;;;;;6.78;2.80;;;21.10;49.40;;;;;;4892905;29;20194;-72
2023/06/12 01:23:48;;;;;;;6.03;3.05;;;21.00;49.60;;;;;;4906688;29;20056;-73
2023/06/12 01:26:39;;;;;;;6.53;2.92;;;21.00;49.70;;;;;;4908620;29;20056;-73
2023/06/12 01:29:40;;;;;;;6.43;2.80;;;21.00;49.80;;;;;;4922770;29;20044;-73
2023/06/12 01:32:12;;;;;;;6.57;2.70;;;21.00;49.70;;;;;;4923756;29;20511;-73
2023/06/12 01:34:50;;;;;;;6.85;3.15;;;21.00;49.80;;;;;;4894177;29;20546;-72
2023/06/12 01:37:25;;;;;;;6.60;3.08;;;20.90;50.00;;;;;;4909879;29;20081;-73
2023/06/12 01:39:57;;;;;;;6.25;2.97;;;20.90;50.10;;;;;;4893846;29;20063;-73
2023/06/12 01:42:27;;;;;;;5.30;3.00;;;20.80;50.10;;;;;;4923582;29;20083;-73
2023/06/12 01:44:54;;;;;;;8.20;2.97;;;20.70;50.30;;;;;;4909433;29;20057;-73
2023/06/12 01:47:23;;;;;;;6.13;2.90;;;20.70;50.40;;;;;;4910010;29;20488;-73
2023/06/12 01:49:52;;;;;;;5.90;2.90;;;20.60;50.60;;;;;;4894004;29;20143;-73
2023/06/12 01:52:20;;;;;;;5.40;2.63;;;20.60;50.70;;;;;;4909584;29;20419;-73
2023/06/12 01:54:48;;;;;;;6.03;2.97;;;20.60;50.70;;;;;;4909835;29;20057;-73
2023/06/12 01:57:19;;;;;;;7.70;3.70;;;20.60;50.70;;;;;;4925330;29;20055;-73
2023/06/12 01:59:46;;;;;;;5.72;3.10;;;20.50;50.80;;;;;;4893881;29;20053;-73
2023/06/12 02:02:13;;;;;;;5.78;2.90;;;20.50;50.90;;;;;;4925241;29;20049;-73
2023/06/12 02:04:42;;;;;;;5.68;2.90;;;20.50;51.10;;;;;;4924853;29;20563;-73
2023/06/12 02:07:09;;;;;;;6.72;3.00;;;20.30;51.30;;;;;;4893912;29;20145;-73
2023/06/12 02:09:36;;;;;;;5.33;3.27;;;20.30;51.30;;;;;;4911020;29;20136;-73
2023/06/12 02:12:04;;;;;;;7.68;2.78;;;20.20;51.50;;;;;;4924929;29;20552;-73
2023/06/12 02:14:31;;;;;;;6.60;3.17;;;20.10;51.70;;;;;;4925477;29;20544;-73
2023/06/12 02:17:02;;;;;;;6.25;2.92;;;20.10;51.80;;;;;;4923985;29;20072;-73
2023/06/12 02:19:29;;;;;;;5.82;2.90;;;20.00;52.00;;;;;;4924470;29;20690;-73
2023/06/12 02:21:58;;;;;;;6.03;3.23;;;20.00;52.10;;;;;;4907856;29;20160;-73
2023/06/12 02:24:28;;;;;;;7.05;2.90;;;20.00;52.10;;;;;;4923665;29;20048;-73
2023/06/12 02:26:55;;;;;;;6.50;2.92;;;20.00;52.10;;;;;;4909545;29;20148;-73
2023/06/12 02:29:22;;;;;;;6.10;3.10;;;20.00;52.10;;;;;;4924026;29;20135;-73
2023/06/12 02:31:53;;;;;;;6.13;3.25;;;20.00;52.10;;;;;;4893231;29;20655;-73
2023/06/12 02:34:21;;;;;;;7.73;3.20;;;20.00;52.10;;;;;;4909581;29;20555;-73
2023/06/12 02:36:48;;;;;;;6.38;3.08;;;20.00;52.20;;;;;;4912214;29;20515;-73
2023/06/12 02:39:25;;;;;;;5.75;2.85;;;20.00;52.20;;;;;;4928739;29;20053;-73
2023/06/12 02:41:53;;;;;;;20.10;4.82;;;20.00;52.20;;;;;;4896774;29;20053;-73
2023/06/12 02:44:21;;;;;;;7.13;3.30;;;20.00;52.30;;;;;;4928670;29;20366;-73
2023/06/12 02:46:54;;;;;;;6.57;3.03;;;20.00;52.50;;;;;;4912750;29;20056;-73
2023/06/12 02:49:26;;;;;;;8.30;3.28;;;20.00;52.70;;;;;;4912500;29;20519;-73
2023/06/12 02:51:54;;;;;;;7.95;2.95;;;20.00;52.60;;;;;;4912105;29;20052;-73
2023/06/12 02:54:23;;;;;;;6.90;2.90;;;20.00;52.70;;;;;;4928952;29;20049;-73
2023/06/12 02:56:52;;;;;;;5.47;3.20;;;20.00;52.90;;;;;;4896632;29;20055;-73
2023/06/12 02:59:21;;;;;;;6.77;3.33;;;20.00;52.80;;;;;;4912390;29;20105;-73
2023/06/12 03:01:49;;;;;;;5.72;2.80;;;20.00;52.90;;;;;;4912367;29;20056;-73
2023/06/12 03:04:36;;;;;;;7.30;3.40;;;20.00;52.90;;;;;;4911919;29;20499;-73
2023/06/12 03:07:05;;;;;;;6.88;3.05;;;20.00;53.00;;;;;;4928457;29;20045;-73
2023/06/12 03:09:34;;;;;;;6.00;3.00;;;20.00;53.10;;;;;;4912532;29;20100;-73
2023/06/12 03:12:03;;;;;;;5.83;3.27;;;19.90;53.30;;;;;;4896432;29;20053;-73
2023/06/12 03:14:33;;;;;;;7.00;3.10;;;19.90;53.40;;;;;;4896904;29;20601;-73
2023/06/12 03:17:00;;;;;;;5.70;3.05;;;19.90;53.30;;;;;;4928361;29;20195;-73
2023/06/12 03:19:28;;;;;;;5.00;2.70;;;19.90;53.20;;;;;;4928915;29;20056;-73
2023/06/12 03:21:55;;;;;;;8.15;3.13;;;19.90;53.20;;;;;;4896575;29;20112;-73
2023/06/12 03:24:24;;;;;;;5.10;3.17;;;19.90;53.40;;;;;;4928375;29;20396;-73
2023/06/12 03:26:51;;;;;;;6.57;3.00;;;19.80;53.40;;;;;;4912096;29;20112;-73
2023/06/12 03:29:19;;;;;;;5.68;3.38;;;19.80;53.40;;;;;;4923797;29;20048;-73
2023/06/12 03:31:46;;;;;;;5.97;3.10;;;19.70;53.50;;;;;;4931192;29;20148;-73
2023/06/12 03:34:15;;;;;;;7.55;3.30;;;19.70;53.50;;;;;;4930997;29;20056;-73
2023/06/12 03:36:43;;;;;;;8.43;3.20;;;19.50;53.60;;;;;;4931146;29;20538;-73
2023/06/12 03:39:13;;;;;;;6.60;3.50;;;19.50;53.70;;;;;;4931778;29;20152;-73
2023/06/12 03:41:52;;;;;;;8.40;3.53;;;19.50;53.90;;;;;;4930763;29;20060;-73
2023/06/12 03:44:21;;;;;;;7.18;3.40;;;19.40;54.00;;;;;;4931435;29;20334;-73
2023/06/12 03:46:48;;;;;;;6.07;3.50;;;19.40;54.10;;;;;;4929819;29;20052;-73
2023/06/12 03:49:15;;;;;;;5.40;3.40;;;19.30;54.30;;;;;;4931321;29;20055;-73
2023/06/12 03:51:43;;;;;;;5.88;3.33;;;19.30;54.50;;;;;;4930977;29;20052;-73
2023/06/12 03:54:11;;;;;;;8.48;3.35;;;19.30;54.60;;;;;;4931198;29;20055;-73
2023/06/12 03:56:38;;;;;;;7.15;3.58;;;19.20;54.60;;;;;;4930697;29;20100;-73
2023/06/12 03:59:05;;;;;;;6.97;3.63;;;19.30;54.60;;;;;;4930819;29;20055;-73
2023/06/12 04:01:33;;;;;;;7.90;3.40;;;19.30;54.70;;;;;;4930497;29;20569;-73
2023/06/12 04:04:01;;;;;;;5.30;2.28;;;19.30;54.80;;;;;;4930471;29;20486;-74
2023/06/12 04:06:29;;;;;;;5.85;2.28;;;19.20;55.30;;;;;;4914563;29;20076;-74
2023/06/12 04:08:56;;;;;;;5.72;2.53;;;19.20;55.60;;;;;;4938742;28;20056;-74
2023/06/12 04:11:23;;;;;;;6.88;3.20;;;19.20;55.80;;;;;;4913256;29;20163;-74
2023/06/12 04:13:50;;;;;;;5.83;2.90;;;19.10;55.80;;;;;;4922604;29;20063;-74
2023/06/12 04:16:18;;;;;;;6.45;3.25;;;19.10;55.90;;;;;;4909089;29;20061;-74
2023/06/12 04:18:47;;;;;;;5.63;3.20;;;19.10;55.90;;;;;;4923750;29;20048;-74
2023/06/12 04:21:15;;;;;;;5.82;2.80;;;19.20;55.90;;;;;;4892084;29;20098;-74
2023/06/12 04:23:47;;;;;;;6.20;2.90;;;19.20;55.80;;;;;;4910972;29;20052;-74
2023/06/12 04:26:14;;;;;;;6.93;3.40;;;19.20;55.80;;;;;;4923314;29;20053;-74
2023/06/12 04:28:42;;;;;;;5.90;3.05;;;19.20;55.70;;;;;;4908926;29;20061;-74
2023/06/12 04:31:09;;;;;;;9.30;3.50;;;19.20;55.70;;;;;;4925360;28;20152;-74
2023/06/12 04:33:37;;;;;;;8.27;3.30;;;19.20;55.80;;;;;;4925335;29;20053;-74
2023/06/12 04:36:07;;;;;;;8.98;3.50;;;19.20;55.90;;;;;;4925086;29;20057;-74
2023/06/12 04:38:36;;;;;;;6.20;3.10;;;19.20;56.10;;;;;;4925408;29;20045;-74
2023/06/12 04:41:05;;;;;;;8.93;3.65;;;19.20;56.20;;;;;;4894906;29;20852;-74
2023/06/12 04:43:32;;;;;;;6.50;3.10;;;19.20;56.30;;;;;;4894999;29;20112;-74
2023/06/12 04:46:01;;;;;;;8.63;2.97;;;19.20;56.40;;;;;;4911972;29;20477;-74
2023/06/12 04:48:28;;;;;;;6.85;2.85;;;19.20;56.40;;;;;;4926328;29;20435;-74
2023/06/12 04:50:56;;;;;;;6.03;2.93;;;19.20;56.40;;;;;;4911859;29;20061;-74
2023/06/12 04:53:27;;;;;;;5.95;2.97;;;19.20;56.50;;;;;;4894913;29;20044;-73
2023/06/12 04:55:56;;;;;;;6.30;3.20;;;19.20;56.60;;;;;;4894895;29;20055;-74
2023/06/12 04:58:24;;;;;;;6.75;3.42;;;19.30;56.70;;;;;;4910060;29;20049;-74
2023/06/12 05:00:55;;;;;;;8.20;3.15;;;19.30;56.90;;;;;;4911928;29;20120;-74
2023/06/12 05:03:22;;;;;;;7.00;3.60;;;19.30;57.00;;;;;;4911850;29;20201;-74
2023/06/12 05:05:49;;;;;;;7.90;3.22;;;19.30;57.20;;;;;;4910518;29;20082;-74
2023/06/12 05:08:17;;;;;;;9.90;3.47;;;19.30;57.40;;;;;;4924394;29;20059;-74
2023/06/12 05:10:46;;;;;;;16.98;4.28;;;19.40;57.40;;;;;;4908010;29;20352;-74
2023/06/12 05:13:13;;;;;;;10.00;3.67;;;19.40;57.50;;;;;;4926101;29;20056;-74
2023/06/12 05:15:42;;;;;;;9.50;3.00;;;19.40;57.40;;;;;;4894942;29;20049;-74
2023/06/12 05:18:10;;;;;;;5.25;3.17;;;19.40;57.70;;;;;;4926605;29;20064;-74
2023/06/12 05:20:37;;;;;;;6.95;3.28;;;19.50;57.80;;;;;;4923579;29;20049;-74
2023/06/12 05:23:05;;;;;;;7.15;3.22;;;19.50;57.70;;;;;;4917860;29;20053;-73
2023/06/12 05:25:32;;;;;;;7.00;3.28;;;19.50;58.00;;;;;;4890528;29;20903;-74
2023/06/12 05:28:03;;;;;;;5.90;3.33;;;19.50;58.00;;;;;;4908027;29;20622;-74
2023/06/12 05:30:31;;;;;;;5.57;3.03;;;19.40;58.20;;;;;;4937405;28;20060;-74
2023/06/12 05:33:00;;;;;;;9.18;3.45;;;19.40;58.20;;;;;;4925270;28;20052;-74
2023/06/12 05:35:27;;;;;;;8.82;3.30;;;19.40;58.40;;;;;;4924097;29;20055;-74
2023/06/12 05:37:55;;;;;;;6.40;3.45;;;19.40;58.40;;;;;;4892546;29;20164;-73
2023/06/12 05:40:22;;;;;;;8.00;3.70;;;19.40;58.60;;;;;;4925426;28;20056;-74
2023/06/12 05:42:50;;;;;;;5.95;3.40;;;19.40;58.60;;;;;;4907955;29;20101;-74
2023/06/12 05:45:19;;;;;;;6.32;3.15;;;19.40;58.90;;;;;;4923533;29;20097;-74
2023/06/12 05:47:46;;;;;;;6.38;3.10;;;19.40;58.90;;;;;;4893851;29;20085;-74
2023/06/12 05:50:14;;;;;;;6.95;3.25;;;19.40;58.90;;;;;;4924240;29;20057;-74
2023/06/12 05:52:41;;;;;;;9.30;3.57;;;19.40;59.00;;;;;;4893475;29;20060;-74
2023/06/12 05:55:09;;;;;;;7.88;3.78;;;19.40;59.00;;;;;;4910745;29;20059;-74
2023/06/12 05:57:37;;;;;;;7.25;3.30;;;19.40;59.20;;;;;;4908895;29;20056;-74
2023/06/12 06:00:06;;;;;;;6.68;3.05;;;19.40;59.30;;;;;;4909309;29;20053;-74
2023/06/12 06:02:43;;;;;;;8.38;3.65;;;19.40;59.30;;;;;;4908208;29;20163;-74
2023/06/12 06:05:16;;;;;;;5.87;3.30;;;19.40;59.40;;;;;;4936391;28;20105;-74
2023/06/12 06:07:43;;;;;;;6.97;4.00;;;19.40;59.50;;;;;;4920450;29;20982;-74
2023/06/12 06:10:11;;;;;;;6.28;3.85;;;19.40;59.60;;;;;;4920144;29;20137;-74
2023/06/12 06:12:38;;;;;;;7.90;3.92;;;19.50;59.70;;;;;;4912754;29;20045;-73
2023/06/12 06:15:07;;;;;;;8.15;4.22;;;19.50;59.70;;;;;;4927206;29;20429;-74
2023/06/12 06:17:34;;;;;;;6.87;3.43;;;19.50;59.80;;;;;;4926403;29;20059;-73
2023/06/12 06:20:05;;;;;;;9.23;4.38;;;19.50;59.90;;;;;;4908936;29;20052;-75
2023/06/12 06:22:32;;;;;;;6.72;3.80;;;19.50;60.10;;;;;;4912593;29;20091;-75
2023/06/12 06:25:00;;;;;;;7.28;3.97;;;19.50;60.10;;;;;;4925103;29;20352;-75
2023/06/12 06:27:27;;;;;;;7.18;3.42;;;19.60;60.20;;;;;;4911482;29;20139;-75
2023/06/12 06:29:55;;;;;;;7.03;3.37;;;19.60;60.20;;;;;;4907613;29;20519;-74
2023/06/12 06:32:22;;;;;;;8.15;4.05;;;19.70;60.30;;;;;;4921395;29;20059;-74
2023/06/12 06:34:49;;;;;;;9.15;4.20;;;19.70;60.50;;;;;;4926552;28;20124;-76
2023/06/12 06:37:18;;;;;;;10.48;4.20;;;19.70;60.50;;;;;;4894677;29;20519;-75
2023/06/12 06:39:46;;;;;;;9.25;3.65;;;19.80;60.60;;;;;;4924725;29;20057;-75
2023/06/12 06:42:13;;;;;;;6.43;3.73;;;19.80;60.50;;;;;;4924872;29;20049;-75
2023/06/12 06:45:02;;;;;;;7.03;3.75;;;19.90;60.30;;;;;;4927520;28;20550;-76
2023/06/12 06:47:29;;;;;;;13.85;3.92;;;19.90;60.40;;;;;;4892620;29;20240;-76
2023/06/12 06:49:58;;;;;;;10.73;4.10;;;20.00;60.40;;;;;;4908003;29;20526;-75
2023/06/12 06:52:27;;;;;;;9.65;3.90;;;20.00;60.30;;;;;;4926299;29;20056;-75
2023/06/12 06:54:54;;;;;;;9.07;3.93;;;20.00;60.40;;;;;;4925646;29;20080;-74
2023/06/12 06:57:23;;;;;;;6.95;4.15;;;20.10;60.30;;;;;;4896235;29;20049;-74
2023/06/12 06:59:51;;;;;;;8.13;4.47;;;20.10;60.40;;;;;;4898952;29;20053;-75
2023/06/12 07:02:18;;;;;;;9.18;4.30;;;20.20;60.30;;;;;;4915318;28;20063;-74
2023/06/12 07:04:46;;;;;;;7.93;3.97;;;20.30;60.20;;;;;;4943454;28;20523;-74
2023/06/12 07:07:14;;;;;;;5.83;3.80;;;20.30;60.30;;;;;;4925855;29;20193;-74
2023/06/12 07:09:43;;;;;;;6.38;3.85;;;20.40;60.20;;;;;;4913559;29;20061;-76
2023/06/12 07:12:11;;;;;;;8.23;4.50;;;20.50;60.20;;;;;;4923708;28;20061;-75
2023/06/12 07:14:39;;;;;;;7.78;4.00;;;20.50;60.00;;;;;;4909985;29;20088;-73
2023/06/12 07:17:06;;;;;;;8.88;4.25;;;20.50;59.70;;;;;;4925606;29;20139;-73
2023/06/12 07:19:33;;;;;;;6.97;3.70;;;20.60;59.70;;;;;;4925525;28;20060;-74
2023/06/12 07:22:00;;;;;;;8.18;4.03;;;20.60;59.50;;;;;;4893600;29;20048;-73
2023/06/12 07:24:27;;;;;;;7.63;4.43;;;20.70;59.40;;;;;;4910693;29;20053;-76
2023/06/12 07:27:21;;;;;;;10.38;4.40;;;20.70;59.30;;;;;;4911047;29;20049;-75
2023/06/12 07:29:48;;;;;;;11.57;4.00;;;20.80;59.70;;;;;;4919461;28;20090;-76
2023/06/12 07:32:15;;;;;;;8.60;3.90;;;20.90;59.60;;;;;;4923709;29;20564;-76
2023/06/12 07:34:42;;;;;;;8.35;4.40;;;20.90;59.50;;;;;;4911120;29;20063;-75
2023/06/12 07:37:10;;;;;;;6.65;4.10;;;21.00;59.40;;;;;;4914322;29;20056;-76
2023/06/12 07:39:37;;;;;;;6.68;4.30;;;21.10;59.20;;;;;;4915393;29;20155;-76
2023/06/12 07:42:07;;;;;;;8.15;4.18;;;21.10;59.10;;;;;;4915323;29;20056;-79
2023/06/12 07:44:37;;;;;;;7.00;4.40;;;21.20;59.10;;;;;;4919676;29;20503;-78
2023/06/12 07:47:05;;;;;;;6.35;4.47;;;21.30;59.00;;;;;;4911908;29;20492;-75
2023/06/12 07:49:33;;;;;;;6.20;3.67;;;21.30;59.00;;;;;;4924840;28;20590;-75
2023/06/12 07:52:01;;;;;;;8.38;4.10;;;21.40;58.90;;;;;;4903777;29;20059;-76
2023/06/12 07:54:28;;;;;;;6.95;3.78;;;21.50;58.60;;;;;;4920486;29;20081;-77
2023/06/12 07:56:55;;;;;;;6.97;3.67;;;21.50;58.30;;;;;;4907905;29;20060;-79
2023/06/12 07:59:23;;;;;;;6.95;4.18;;;21.60;58.60;;;;;;4927126;28;20859;-75
2023/06/12 08:01:57;;;;;;;6.88;4.20;;;21.70;58.80;;;;;;4919692;29;20170;-75
2023/06/12 08:04:24;;;;;;;6.88;3.83;;;21.70;58.80;;;;;;4911390;29;20049;-75
2023/06/12 08:06:54;;;;;;;7.82;4.25;;;21.70;58.60;;;;;;4909681;29;20053;-74
2023/06/12 08:09:23;;;;;;;5.90;3.40;;;21.90;58.40;;;;;;4912553;29;20048;-75
2023/06/12 08:11:51;;;;;;;9.15;4.50;;;21.90;58.20;;;;;;4910562;29;20059;-76
2023/06/12 08:14:19;;;;;;;8.30;4.35;;;21.90;58.20;;;;;;4923499;29;21023;-74
2023/06/12 08:16:46;;;;;;;8.27;3.85;;;22.00;58.00;;;;;;4908106;29;20064;-75
2023/06/12 08:19:15;;;;;;;8.93;4.28;;;22.00;57.70;;;;;;4911356;29;20067;-75
2023/06/12 08:21:42;;;;;;;7.30;3.80;;;22.10;57.60;;;;;;4927115;29;20052;-75
2023/06/12 08:24:12;;;;;;;8.07;4.13;;;22.20;57.40;;;;;;4911163;29;20542;-76
2023/06/12 08:26:40;;;;;;;5.72;3.80;;;22.20;57.10;;;;;;4910965;29;20167;-75
2023/06/12 08:29:08;;;;;;;7.30;4.10;;;22.30;56.70;;;;;;4921962;29;20044;-74
2023/06/12 08:31:37;;;;;;;19.42;4.97;;;22.40;56.60;;;;;;4920432;29;20048;-76
2023/06/12 08:34:05;;;;;;;7.10;4.10;;;22.50;56.60;;;;;;4917183;28;20057;-77
2023/06/12 08:36:35;;;;;;;15.07;4.95;;;22.50;56.10;;;;;;4909170;29;20452;-76
2023/06/12 08:39:03;;;;;;;10.98;4.20;;;22.60;55.80;;;;;;4921896;28;20048;-75
2023/06/12 08:41:33;;;;;;;7.95;3.78;;;22.70;55.70;;;;;;4911264;28;20191;-76
2023/06/12 08:44:01;;;;;;;7.53;4.35;;;22.80;55.90;;;;;;4912627;29;20060;-75
2023/06/12 08:46:38;;;;;;;7.20;4.37;;;22.90;56.10;;;;;;4912514;29;20470;-76
2023/06/12 08:49:05;;;;;;;8.07;4.60;;;23.00;56.10;;;;;;4912332;29;20056;-76
2023/06/12 08:51:34;;;;;;;9.98;4.40;;;23.10;56.10;;;;;;4909073;29;20132;-76
2023/06/12 08:54:03;;;;;;;8.73;4.68;;;23.10;56.20;;;;;;4890199;29;20040;-75
2023/06/12 08:56:31;;;;;;;8.02;4.70;;;23.20;56.30;;;;;;4924231;29;20509;-76
2023/06/12 08:58:58;;;;;;;8.10;4.40;;;23.30;56.40;;;;;;4917641;29;20412;-74
2023/06/12 09:01:28;;;;;;;7.95;4.85;;;23.30;56.50;;;;;;4919495;29;20496;-75
2023/06/12 09:04:00;;;;;;;13.57;5.30;;;23.40;56.60;;;;;;4903442;29;20582;-73
2023/06/12 09:06:29;;;;;;;7.18;4.70;;;23.50;56.60;;;;;;4907259;29;20060;-76
2023/06/12 09:08:59;;;;;;;8.10;5.05;;;23.60;56.00;;;;;;4907874;29;20053;-76
2023/06/12 09:11:27;;;;;;;11.07;5.10;;;23.60;55.30;;;;;;4908326;29;20048;-75
2023/06/12 09:13:54;;;;;;;8.95;5.32;;;23.80;55.00;;;;;;4908403;29;20056;-76
2023/06/12 09:16:21;;;;;;;37.60;7.85;;;23.80;54.50;;;;;;4904787;29;20052;-74
2023/06/12 09:18:49;;;;;;;11.00;5.10;;;23.90;54.10;;;;;;4909696;29;20136;-74
2023/06/12 09:21:16;;;;;;;9.23;4.80;;;24.00;53.90;;;;;;4916600;29;20140;-74
2023/06/12 09:23:45;;;;;;;7.97;5.00;;;24.00;54.00;;;;;;4916015;29;21036;-74
2023/06/12 09:26:15;;;;;;;8.25;4.72;;;24.20;53.90;;;;;;4920057;29;20056;-74
2023/06/12 09:28:43;;;;;;;8.82;5.60;;;24.20;53.80;;;;;;4917170;29;20096;-75
2023/06/12 09:31:10;;;;;;;9.80;5.70;;;24.30;53.60;;;;;;4945336;23;20065;-76
2023/06/12 09:33:40;;;;;;;11.00;5.30;;;24.40;53.30;;;;;;4928340;28;20052;-74
2023/06/12 09:36:07;;;;;;;10.60;5.30;;;24.40;53.30;;;;;;4943332;28;20043;-75
2023/06/12 09:38:36;;;;;;;8.95;5.32;;;24.50;53.40;;;;;;4943486;28;20593;-75
2023/06/12 09:41:04;;;;;;;7.85;4.68;;;24.60;53.30;;;;;;4956202;28;20139;-75
2023/06/12 09:43:33;;;;;;;8.20;5.20;;;24.60;53.20;;;;;;4954500;28;20055;-74
2023/06/12 09:46:03;;;;;;;9.27;5.03;;;24.70;53.40;;;;;;4946556;28;20059;-75
2023/06/12 09:48:34;;;;;;;8.07;5.10;;;24.80;53.30;;;;;;4947630;28;20052;-75
2023/06/12 09:51:05;;;;;;;10.00;5.47;;;24.90;53.20;;;;;;4946770;28;20048;-75
2023/06/12 09:53:36;;;;;;;9.73;5.90;;;25.00;53.10;;;;;;4943344;28;20487;-75
2023/06/12 09:56:07;;;;;;;11.38;5.45;;;25.00;52.90;;;;;;4940962;28;20082;-75
2023/06/12 09:58:46;;;;;;;25.08;6.80;;;25.00;52.70;;;;;;4944668;28;20118;-75
2023/06/12 10:01:13;;;;;;;8.10;5.53;;;25.20;51.40;;;;;;4928403;28;20054;-75
2023/06/12 10:03:44;;;;;;;17.33;6.50;;;25.30;49.90;;;;;;4949652;28;20056;-74
2023/06/12 10:06:13;;;;;;;28.38;7.70;;;25.40;50.40;;;;;;4941196;28;20056;-74
2023/06/12 10:08:40;;;;;;;14.30;6.22;;;25.50;50.50;;;;;;4948948;28;20051;-74
2023/06/12 10:11:08;;;;;;;11.43;6.53;;;25.60;50.20;;;;;;4949477;28;20059;-74
2023/06/12 10:13:36;;;;;;;8.93;6.10;;;25.70;49.40;;;;;;4940464;28;20054;-75
2023/06/12 10:16:05;;;;;;;8.88;6.25;;;25.80;48.50;;;;;;4948205;28;20062;-74
2023/06/12 10:18:33;;;;;;;8.05;5.93;;;25.80;48.00;;;;;;4940810;28;20565;-75
2023/06/12 10:21:01;;;;;;;8.98;6.20;;;25.90;47.60;;;;;;4948093;28;20058;-74
2023/06/12 10:23:29;;;;;;;9.80;6.30;;;26.00;47.50;;;;;;4945574;28;20790;-74
2023/06/12 10:25:57;;;;;;;8.20;6.30;;;26.10;46.80;;;;;;4946279;28;20051;-74
2023/06/12 10:28:25;;;;;;;9.10;6.68;;;26.20;46.10;;;;;;4946741;28;20131;-74
2023/06/12 10:31:13;;;;;;;7.85;6.60;;;26.30;46.30;;;;;;4939078;28;20058;-75
2023/06/12 10:33:57;;;;;;;8.57;6.50;;;26.40;45.40;;;;;;4941415;28;20526;-75
2023/06/12 10:36:24;;;;;;;8.10;6.43;;;26.50;43.80;;;;;;4941732;28;20063;-74
2023/06/12 10:39:00;;;;;;;8.90;6.13;;;26.50;44.40;;;;;;4944703;28;20067;-73
2023/06/12 10:41:34;;;;;;;9.25;6.20;;;26.60;43.40;;;;;;4943361;28;20510;-74
2023/06/12 10:44:23;;;;;;;40.75;9.75;;;26.70;43.20;;;;;;4940191;28;20052;-73
2023/06/12 10:46:52;;;;;;;9.88;6.53;;;26.80;43.10;;;;;;4941126;28;20058;-74
2023/06/12 10:49:19;;;;;;;8.65;6.45;;;26.90;43.20;;;;;;4943405;28;20116;-74
2023/06/12 10:51:51;;;;;;;11.37;6.47;;;26.90;42.70;;;;;;4946492;28;20051;-73
2023/06/12 10:54:25;;;;;;;8.05;6.13;;;27.00;42.40;;;;;;4938241;28;20074;-73
2023/06/12 10:57:00;;;;;;;8.57;6.13;;;27.10;41.80;;;;;;4940162;28;20050;-73
2023/06/12 10:59:32;;;;;;;26.60;7.95;;;27.20;40.60;;;;;;4943935;28;20066;-74
2023/06/12 11:02:00;;;;;;;9.48;6.55;;;27.20;41.30;;;;;;4946220;28;20060;-73
2023/06/12 11:04:27;;;;;;;7.57;6.40;;;27.30;41.60;;;;;;4948568;28;20048;-74
2023/06/12 11:06:55;;;;;;;10.43;6.68;;;27.40;40.80;;;;;;4950177;28;20422;-74
2023/06/12 11:09:23;;;;;;;9.35;6.85;;;27.50;41.20;;;;;;4949950;28;20058;-74
2023/06/12 11:11:51;;;;;;;7.22;6.00;;;27.50;40.90;;;;;;4951373;28;20513;-74
2023/06/12 11:14:25;;;;;;;7.97;6.30;;;27.50;40.60;;;;;;4949723;28;20059;-75
2023/06/12 11:17:00;;;;;;;9.37;7.07;;;27.70;40.50;;;;;;4951182;28;20047;-75
2023/06/12 11:19:28;;;;;;;9.52;6.40;;;27.70;40.40;;;;;;4950529;28;20051;-75
2023/06/12 11:21:56;;;;;;;7.70;6.43;;;27.80;40.60;;;;;;4940176;28;20104;-75
2023/06/12 11:24:24;;;;;;;9.27;7.07;;;27.80;40.80;;;;;;4949223;28;20064;-75
2023/06/12 11:26:51;;;;;;;9.98;6.90;;;27.90;40.40;;;;;;4952096;28;20047;-74
2023/06/12 11:29:21;;;;;;;9.83;6.60;;;27.90;40.10;;;;;;4949098;28;20104;-74
2023/06/12 11:31:50;;;;;;;10.02;6.80;;;28.00;39.50;;;;;;4948746;28;20142;-74
2023/06/12 11:34:18;;;;;;;16.92;7.85;;;28.10;39.30;;;;;;4948483;28;20060;-74
2023/06/12 11:36:46;;;;;;;15.55;7.55;;;28.10;38.00;;;;;;4950378;28;20062;-74
2023/06/12 11:39:19;;;;;;;10.95;7.47;;;28.30;37.60;;;;;;4947016;28;20059;-74
2023/06/12 11:41:49;;;;;;;8.80;6.80;;;28.30;37.20;;;;;;4944768;28;20052;-73
2023/06/12 11:44:17;;;;;;;9.18;7.40;;;28.40;37.20;;;;;;4944853;28;20048;-74
2023/06/12 11:46:45;;;;;;;11.80;7.28;;;28.50;36.60;;;;;;4945200;28;20581;-74
2023/06/12 11:49:13;;;;;;;7.63;6.65;;;28.50;36.80;;;;;;4945348;28;20980;-74
2023/06/12 11:51:42;;;;;;;9.10;7.07;;;28.50;36.80;;;;;;4939692;28;20092;-74
2023/06/12 11:54:11;;;;;;;12.47;6.53;;;28.50;36.60;;;;;;4942692;28;20063;-74
2023/06/12 11:56:41;;;;;;;11.13;7.10;;;28.50;36.50;;;;;;4947674;28;20064;-74
2023/06/12 11:59:08;;;;;;;10.15;6.70;;;28.60;36.50;;;;;;4943206;28;20056;-74
2023/06/12 12:01:38;;;;;;;9.23;7.03;;;28.60;36.50;;;;;;4942205;28;20047;-74
2023/06/12 12:04:06;;;;;;;9.43;6.82;;;28.70;35.70;;;;;;4945454;28;20060;-75
2023/06/12 12:06:48;;;;;;;8.37;7.37;;;28.70;36.00;;;;;;4946343;28;20060;-74
2023/06/12 12:09:15;;;;;;;8.00;7.00;;;28.90;36.00;;;;;;4946192;28;20571;-74
2023/06/12 12:11:42;;;;;;;8.95;7.50;;;28.90;36.50;;;;;;4962629;28;20040;-74
2023/06/12 12:14:10;;;;;;;7.78;6.82;;;29.00;35.60;;;;;;4941493;28;20059;-74
2023/06/12 12:16:39;;;;;;;17.02;7.93;;;29.00;35.80;;;;;;4951499;28;20111;-75
2023/06/12 12:19:25;;;;;;;18.50;7.80;;;29.10;35.20;;;;;;4950541;28;20174;-74
2023/06/12 12:21:54;;;;;;;9.48;7.10;;;29.20;35.30;;;;;;4942879;28;20057;-76
2023/06/12 12:24:21;;;;;;;12.65;7.75;;;29.30;35.40;;;;;;4951210;28;20135;-75
2023/06/12 12:26:50;;;;;;;10.18;7.72;;;29.40;35.60;;;;;;4947835;28;20051;-75
2023/06/12 12:29:19;;;;;;;10.30;7.60;;;29.40;35.80;;;;;;4948298;28;20921;-75
2023/06/12 12:31:46;;;;;;;9.17;7.10;;;29.50;35.60;;;;;;4949539;28;20067;-75
2023/06/12 12:34:13;;;;;;;10.45;7.47;;;29.50;34.90;;;;;;4949620;28;20114;-74
2023/06/12 12:36:41;;;;;;;7.93;7.10;;;29.50;35.00;;;;;;4947474;28;20081;-75
2023/06/12 12:39:10;;;;;;;8.27;7.35;;;29.60;35.10;;;;;;4913316;29;20055;-75
2023/06/12 12:41:37;;;;;;;9.80;8.13;;;29.70;35.20;;;;;;4936345;28;20062;-75
2023/06/12 12:44:05;;;;;;;11.77;7.63;;;29.70;35.20;;;;;;4945688;28;20063;-75
2023/06/12 12:46:33;;;;;;;8.85;7.90;;;29.80;35.10;;;;;;4950163;28;20086;-75
2023/06/12 12:49:00;;;;;;;15.05;8.00;;;29.90;35.00;;;;;;4950241;28;20055;-75
2023/06/12 12:51:29;;;;;;;25.40;8.48;;;29.90;34.70;;;;;;4949457;28;20158;-75
2023/06/12 12:53:56;;;;;;;12.13;7.43;;;30.00;34.00;;;;;;4950051;28;20058;-75
2023/06/12 12:56:25;;;;;;;8.67;7.13;;;30.00;34.00;;;;;;4948194;28;20525;-75